createdAt,value
2023-01-27T00:01:17.163Z,95.23
2023-01-27T00:03:45.818Z,95.04
2023-01-27T00:06:14.343Z,94.96
2023-01-27T00:08:42.532Z,95.26
2023-01-27T00:11:29.371Z,95.22
2023-01-27T00:13:57.685Z,95.28
2023-01-27T00:16:27.745Z,95.37
2023-01-27T00:18:56.083Z,95.61
2023-01-27T00:24:36.746Z,95.35
2023-01-27T00:27:09.242Z,95.54
2023-01-27T00:29:41.069Z,95.61
2023-01-27T00:32:29.211Z,95.56
2023-01-27T00:34:57.689Z,95.76
2023-01-27T00:37:26.487Z,95.86
2023-01-27T00:39:54.686Z,95.85
2023-01-27T00:42:23.142Z,95.95
2023-01-27T00:45:10.368Z,96.07
2023-01-27T00:47:38.751Z,96.09
2023-01-27T00:50:07.970Z,95.97
2023-01-27T00:52:36.641Z,95.76
2023-01-27T00:55:09.607Z,95.62
2023-01-27T00:57:38.979Z,95.62
2023-01-27T01:00:11.197Z,95.61
2023-01-27T01:02:40.543Z,95.78
2023-01-27T01:05:11.476Z,95.65
2023-01-27T01:07:39.599Z,95.25
2023-01-27T01:10:10.568Z,94.96
2023-01-27T01:12:39.280Z,94.98
2023-01-27T01:15:07.675Z,95.03
2023-01-27T01:17:36.922Z,95.26
2023-01-27T01:20:05.505Z,95.28
2023-01-27T01:22:33.333Z,95.49
2023-01-27T01:25:01.562Z,95.55
2023-01-27T01:27:32.620Z,95.65
2023-01-27T01:30:01.640Z,95.83
2023-01-27T01:32:33.324Z,95.89
2023-01-27T01:35:01.582Z,95.90
2023-01-27T01:37:29.719Z,95.68
2023-01-27T01:39:57.723Z,95.42
2023-01-27T01:42:25.856Z,95.50
2023-01-27T01:45:32.371Z,95.72
2023-01-27T01:48:07.915Z,95.81
2023-01-27T01:50:39.406Z,95.86
2023-01-27T01:53:09.741Z,95.88
2023-01-27T01:55:40.000Z,96.03
2023-01-27T01:58:10.430Z,96.01
2023-01-27T02:00:38.766Z,96.24
2023-01-27T02:03:07.629Z,96.35
2023-01-27T02:05:40.764Z,96.40
2023-01-27T02:08:31.623Z,96.23
2023-01-27T02:10:59.906Z,96.29
2023-01-27T02:13:28.965Z,96.30
2023-01-27T02:15:58.631Z,96.23
2023-01-27T02:18:28.240Z,95.31
2023-01-27T02:20:58.690Z,95.22
2023-01-27T02:23:38.769Z,95.32
2023-01-27T02:26:33.883Z,95.45
2023-01-27T02:29:07.315Z,95.53
2023-01-27T02:31:39.432Z,95.63
2023-01-27T02:34:15.149Z,95.67
2023-01-27T02:36:50.655Z,95.58
2023-01-27T02:39:22.277Z,95.33
2023-01-27T02:41:56.704Z,95.08
2023-01-27T02:44:24.827Z,94.97
2023-01-27T02:46:59.430Z,95.20
2023-01-27T02:49:27.679Z,95.32
2023-01-27T02:51:56.654Z,95.33
2023-01-27T02:54:27.176Z,95.19
2023-01-27T02:56:57.423Z,94.99
2023-01-27T02:59:27.416Z,94.91
2023-01-27T03:01:56.332Z,94.88
2023-01-27T03:04:27.630Z,94.80
2023-01-27T03:06:55.503Z,94.92
2023-01-27T03:09:25.674Z,94.86
2023-01-27T03:12:13.051Z,94.50
2023-01-27T03:14:59.671Z,94.39
2023-01-27T03:17:46.018Z,94.42
2023-01-27T03:20:14.481Z,94.30
2023-01-27T03:22:42.416Z,93.63
2023-01-27T03:25:14.130Z,93.62
2023-01-27T03:27:42.599Z,93.83
2023-01-27T03:30:41.118Z,93.81
2023-01-27T03:33:18.132Z,93.82
2023-01-27T03:36:22.252Z,93.79
2023-01-27T03:39:10.967Z,93.26
2023-01-27T03:41:57.170Z,93.18
2023-01-27T03:44:46.576Z,92.88
2023-01-27T03:47:14.397Z,92.96
2023-01-27T03:49:42.185Z,92.70
2023-01-27T03:52:10.260Z,92.62
2023-01-27T03:54:38.399Z,92.67
2023-01-27T03:57:06.732Z,92.56
2023-01-27T03:59:36.066Z,92.48
2023-01-27T04:02:22.525Z,92.58
2023-01-27T04:05:09.121Z,92.70
2023-01-27T04:07:38.455Z,92.55
2023-01-27T04:10:06.819Z,92.38
2023-01-27T04:12:34.648Z,92.43
2023-01-27T04:15:02.469Z,92.44
2023-01-27T04:17:38.622Z,92.67
2023-01-27T04:20:06.889Z,92.56
2023-01-27T04:22:36.315Z,92.65
2023-01-27T04:25:04.471Z,92.56
2023-01-27T04:27:32.294Z,92.62
2023-01-27T04:30:00.450Z,92.51
2023-01-27T04:32:28.459Z,92.62
2023-01-27T04:34:57.576Z,92.60
2023-01-27T04:37:25.470Z,92.79
2023-01-27T04:39:53.904Z,92.97
2023-01-27T04:42:21.839Z,92.85
2023-01-27T04:44:49.653Z,92.98
2023-01-27T04:47:23.566Z,92.85
2023-01-27T04:49:51.458Z,93.07
2023-01-27T04:52:19.303Z,93.09
2023-01-27T04:54:49.669Z,93.04
2023-01-27T04:57:17.635Z,93.10
2023-01-27T04:59:45.488Z,93.10
2023-01-27T05:02:13.315Z,93.17
2023-01-27T05:04:41.118Z,93.15
2023-01-27T05:07:11.366Z,93.09
2023-01-27T05:09:39.232Z,92.96
2023-01-27T05:12:07.260Z,92.96
2023-01-27T05:14:35.055Z,92.97
2023-01-27T05:17:02.835Z,92.98
2023-01-27T05:19:31.799Z,93.03
2023-01-27T05:21:59.919Z,93.04
2023-01-27T05:24:28.993Z,93.03
2023-01-27T05:26:57.716Z,93.02
2023-01-27T05:29:25.592Z,92.56
2023-01-27T05:31:53.754Z,92.47
2023-01-27T05:34:21.612Z,92.57
2023-01-27T05:36:49.727Z,92.32
2023-01-27T05:39:17.680Z,92.43
2023-01-27T05:41:45.513Z,92.08
2023-01-27T05:44:13.586Z,92.19
2023-01-27T05:46:42.537Z,92.00
2023-01-27T05:49:10.929Z,91.76
2023-01-27T05:51:40.228Z,92.07
2023-01-27T05:54:09.785Z,91.93
2023-01-27T05:56:38.079Z,92.08
2023-01-27T05:59:05.944Z,92.20
2023-01-27T06:01:34.853Z,92.32
2023-01-27T06:04:04.816Z,92.23
2023-01-27T06:06:33.707Z,91.93
2023-01-27T06:09:01.924Z,91.68
2023-01-27T06:11:30.100Z,91.38
2023-01-27T06:13:57.915Z,91.36
2023-01-27T06:16:28.803Z,91.04
2023-01-27T06:18:58.459Z,90.66
2023-01-27T06:21:26.281Z,90.64
2023-01-27T06:23:54.314Z,90.36
2023-01-27T06:26:23.462Z,90.11
2023-01-27T06:28:51.674Z,89.97
2023-01-27T06:31:21.960Z,89.76
2023-01-27T06:33:51.242Z,89.70
2023-01-27T06:36:21.611Z,89.53
2023-01-27T06:38:50.645Z,89.44
2023-01-27T06:41:19.118Z,88.88
2023-01-27T06:43:48.186Z,88.54
2023-01-27T06:46:16.053Z,88.37
2023-01-27T06:48:45.204Z,88.28
2023-01-27T06:51:13.319Z,88.02
2023-01-27T06:53:41.445Z,87.91
2023-01-27T06:56:09.387Z,88.03
2023-01-27T06:58:37.241Z,87.76
2023-01-27T07:01:06.874Z,87.59
2023-01-27T07:03:37.457Z,87.76
2023-01-27T07:06:05.678Z,88.15
2023-01-27T07:08:33.624Z,88.19
2023-01-27T07:11:04.499Z,88.45
2023-01-27T07:13:32.419Z,88.59
2023-01-27T07:16:06.497Z,88.75
2023-01-27T07:18:34.525Z,89.00
2023-01-27T07:21:05.549Z,89.30
2023-01-27T07:23:33.479Z,89.48
2023-01-27T07:26:09.939Z,89.46
2023-01-27T07:28:40.546Z,89.71
2023-01-27T07:31:08.531Z,90.04
2023-01-27T07:33:37.229Z,90.15
2023-01-27T07:36:06.365Z,90.33
2023-01-27T07:38:34.154Z,90.68
2023-01-27T07:41:06.092Z,90.85
2023-01-27T07:43:34.355Z,91.00
2023-01-27T07:46:02.443Z,91.21
2023-01-27T07:48:30.260Z,91.28
2023-01-27T07:50:58.117Z,91.48
2023-01-27T07:53:26.028Z,91.63
2023-01-27T07:56:01.728Z,91.79
2023-01-27T07:58:29.573Z,91.92
2023-01-27T08:00:59.423Z,92.01
2023-01-27T08:03:27.912Z,91.90
2023-01-27T08:05:55.726Z,91.96
2023-01-27T08:08:23.613Z,92.02
2023-01-27T08:10:51.529Z,92.07
2023-01-27T08:13:19.393Z,92.19
2023-01-27T08:15:47.638Z,92.34
2023-01-27T08:18:16.482Z,92.34
2023-01-27T08:20:45.963Z,92.47
2023-01-27T08:23:14.084Z,92.49
2023-01-27T08:25:41.935Z,92.39
2023-01-27T08:28:10.744Z,92.16
2023-01-27T08:30:38.660Z,91.74
2023-01-27T08:33:06.592Z,91.48
2023-01-27T08:35:37.066Z,91.70
2023-01-27T08:38:05.598Z,91.53
2023-01-27T08:40:33.544Z,91.69
2023-01-27T08:43:03.931Z,91.63
2023-01-27T08:45:32.863Z,91.67
2023-01-27T08:48:06.087Z,91.73
2023-01-27T08:50:34.756Z,91.79
2023-01-27T08:53:04.976Z,91.86
2023-01-27T08:55:34.184Z,91.92
2023-01-27T08:58:02.128Z,92.00
2023-01-27T09:00:29.986Z,92.08
2023-01-27T09:03:01.472Z,91.96
2023-01-27T09:05:29.930Z,92.08
2023-01-27T09:07:57.902Z,92.03
2023-01-27T09:10:25.937Z,92.22
2023-01-27T09:12:54.203Z,92.40
2023-01-27T09:15:22.416Z,92.40
2023-01-27T09:17:50.304Z,92.56
2023-01-27T09:20:18.360Z,92.26
2023-01-27T09:22:46.480Z,92.34
2023-01-27T09:25:16.884Z,92.32
2023-01-27T09:27:48.909Z,92.28
2023-01-27T09:30:20.948Z,92.39
2023-01-27T09:32:49.678Z,92.25
2023-01-27T09:35:17.951Z,92.16
2023-01-27T09:37:56.562Z,92.05
2023-01-27T09:40:34.012Z,92.05
2023-01-27T09:43:37.024Z,92.22
2023-01-27T09:46:23.041Z,92.20
2023-01-27T09:49:08.327Z,92.08
2023-01-27T09:52:03.422Z,91.74
2023-01-27T09:54:45.409Z,91.98
2023-01-27T09:57:51.950Z,91.17
2023-01-27T10:00:42.046Z,91.20
2023-01-27T10:03:26.525Z,91.40
2023-01-27T10:10:42.954Z,91.34
2023-01-27T10:14:02.008Z,91.20
2023-01-27T10:17:17.689Z,90.72
2023-01-27T10:20:25.449Z,90.64
2023-01-27T10:23:44.980Z,90.68
2023-01-27T10:26:38.002Z,90.56
2023-01-27T10:29:20.453Z,90.42
2023-01-27T10:32:10.138Z,90.20
2023-01-27T10:34:45.648Z,90.41
2023-01-27T10:37:16.316Z,90.38
2023-01-27T10:40:21.229Z,90.12
2023-01-27T10:43:06.443Z,90.18
2023-01-27T10:45:55.510Z,89.94
2023-01-27T10:48:31.038Z,90.15
2023-01-27T10:51:28.249Z,90.15
2023-01-27T10:54:15.256Z,90.34
2023-01-27T10:56:53.225Z,90.00
2023-01-27T10:59:31.241Z,89.81
2023-01-27T11:02:26.280Z,89.43
2023-01-27T11:05:08.972Z,89.16
2023-01-27T11:07:51.303Z,88.63
2023-01-27T11:10:21.555Z,88.64
2023-01-27T11:12:54.588Z,88.67
2023-01-27T11:15:33.758Z,88.85
2023-01-27T11:18:25.440Z,87.92
2023-01-27T11:21:19.479Z,87.92
2023-01-27T11:23:57.167Z,87.84
2023-01-27T11:26:31.694Z,88.03
2023-01-27T11:29:28.061Z,88.09
2023-01-27T11:32:02.738Z,87.86
2023-01-27T11:34:52.652Z,87.14
2023-01-27T11:37:23.427Z,86.95
2023-01-27T11:39:51.435Z,86.95
2023-01-27T11:42:21.287Z,86.71
2023-01-27T11:44:54.757Z,86.88
2023-01-27T11:47:36.295Z,87.42
2023-01-27T11:50:05.515Z,86.93
2023-01-27T11:52:34.408Z,87.52
2023-01-27T11:55:14.916Z,88.15
2023-01-27T11:57:52.590Z,88.00
2023-01-27T12:00:21.734Z,88.26
2023-01-27T12:02:58.201Z,88.01
2023-01-27T12:05:31.740Z,87.79
2023-01-27T12:08:02.597Z,87.63
2023-01-27T12:10:39.129Z,87.52
2023-01-27T12:13:24.658Z,87.47
2023-01-27T12:16:00.544Z,87.14
2023-01-27T12:18:33.679Z,86.90
2023-01-27T12:21:05.614Z,86.38
2023-01-27T12:23:39.800Z,86.92
2023-01-27T12:26:10.288Z,86.70
2023-01-27T12:28:49.504Z,86.37
2023-01-27T12:31:19.089Z,86.92
2023-01-27T12:33:59.530Z,87.46
2023-01-27T12:36:30.358Z,86.93
2023-01-27T12:39:02.794Z,87.25
2023-01-27T12:41:36.520Z,87.15
2023-01-27T12:44:18.320Z,86.90
2023-01-27T12:47:23.841Z,86.86
2023-01-27T12:49:51.925Z,87.23
2023-01-27T12:52:21.836Z,87.24
2023-01-27T12:54:51.995Z,87.07
2023-01-27T12:57:21.653Z,87.02
2023-01-27T12:59:52.602Z,86.76
2023-01-27T13:02:24.631Z,87.09
2023-01-27T13:04:59.463Z,87.30
2023-01-27T13:07:47.835Z,86.93
2023-01-27T13:10:24.121Z,87.13
2023-01-27T13:12:55.078Z,86.31
2023-01-27T13:15:24.966Z,85.91
2023-01-27T13:17:54.915Z,86.10
2023-01-27T13:20:33.834Z,86.00
2023-01-27T13:23:28.500Z,86.53
2023-01-27T13:26:14.758Z,86.09
2023-01-27T13:29:01.371Z,86.68
2023-01-27T13:31:55.235Z,86.80
2023-01-27T13:34:33.713Z,87.21
2023-01-27T13:37:31.825Z,87.65
2023-01-27T13:40:21.127Z,87.58
2023-01-27T13:43:33.788Z,87.63
2023-01-27T13:46:27.045Z,87.49
2023-01-27T13:48:58.835Z,87.79
2023-01-27T13:51:30.457Z,88.20
2023-01-27T13:54:03.927Z,88.45
2023-01-27T13:57:00.046Z,88.54
2023-01-27T13:59:43.781Z,88.72
2023-01-27T14:02:23.573Z,88.93
2023-01-27T14:05:26.589Z,88.73
2023-01-27T14:08:37.654Z,88.80
2023-01-27T14:11:30.118Z,88.89
2023-01-27T14:14:23.278Z,88.75
2023-01-27T14:17:27.394Z,87.90
2023-01-27T14:20:19.631Z,87.97
2023-01-27T14:23:08.631Z,88.08
2023-01-27T14:25:39.451Z,87.84
2023-01-27T14:28:20.072Z,88.27
2023-01-27T14:31:00.743Z,88.05
2023-01-27T14:33:37.839Z,87.99
2023-01-27T14:36:24.469Z,87.95
2023-01-27T14:39:18.674Z,87.86
2023-01-27T14:42:09.816Z,87.83
2023-01-27T14:45:06.729Z,87.90
2023-01-27T14:47:48.556Z,88.04
2023-01-27T14:50:32.565Z,87.82
2023-01-27T14:53:46.285Z,87.83
2023-01-27T14:56:45.082Z,87.74
2023-01-27T14:59:45.895Z,87.76
2023-01-27T15:02:33.053Z,87.75
2023-01-27T15:05:19.930Z,87.99
2023-01-27T15:08:06.390Z,88.14
2023-01-27T15:10:35.512Z,88.29
2023-01-27T15:13:15.694Z,88.45
2023-01-27T15:16:30.843Z,88.73
2023-01-27T15:19:14.679Z,88.85
2023-01-27T15:22:14.758Z,88.88
2023-01-27T15:25:13.672Z,89.19
2023-01-27T15:27:42.901Z,89.32
2023-01-27T15:30:38.797Z,89.68
2023-01-27T15:33:25.751Z,89.44
2023-01-27T15:36:19.927Z,88.74
2023-01-27T15:39:20.260Z,88.13
2023-01-27T15:42:04.716Z,88.62
2023-01-27T15:44:38.258Z,88.82
2023-01-27T15:47:14.687Z,89.08
2023-01-27T15:49:47.258Z,89.11
2023-01-27T15:52:45.845Z,89.10
2023-01-27T15:55:32.825Z,88.87
2023-01-27T15:58:06.079Z,88.99
2023-01-27T16:00:42.616Z,89.02
2023-01-27T16:03:35.177Z,88.74
2023-01-27T16:06:25.573Z,88.96
2023-01-27T16:09:05.493Z,88.78
2023-01-27T16:11:36.484Z,88.75
2023-01-27T16:14:13.606Z,89.12
2023-01-27T16:16:51.419Z,89.24
2023-01-27T16:19:31.349Z,89.48
2023-01-27T16:22:06.369Z,89.48
2023-01-27T16:24:43.299Z,89.38
2023-01-27T16:27:35.794Z,89.52
2023-01-27T16:30:14.803Z,89.50
2023-01-27T16:33:03.310Z,89.18
2023-01-27T16:35:49.291Z,89.20
2023-01-27T16:38:24.501Z,89.05
2023-01-27T16:41:21.292Z,89.18
2023-01-27T16:44:23.011Z,88.92
2023-01-27T16:46:58.362Z,89.03
2023-01-27T16:49:31.189Z,88.81
2023-01-27T16:52:02.433Z,88.92
2023-01-27T16:54:35.675Z,88.84
2023-01-27T16:57:07.015Z,88.90
2023-01-27T16:59:39.805Z,89.12
2023-01-27T17:02:23.678Z,88.26
2023-01-27T17:04:59.137Z,88.21
2023-01-27T17:07:27.694Z,88.20
2023-01-27T17:09:59.115Z,88.37
2023-01-27T17:12:30.145Z,88.46
2023-01-27T17:14:59.676Z,88.33
2023-01-27T17:17:29.702Z,88.54
2023-01-27T17:20:06.587Z,88.42
2023-01-27T17:22:43.369Z,88.14
2023-01-27T17:25:20.905Z,88.13
2023-01-27T17:27:54.247Z,88.02
2023-01-27T17:30:26.204Z,87.94
2023-01-27T17:33:00.509Z,88.16
2023-01-27T17:35:37.390Z,88.10
2023-01-27T17:38:16.744Z,87.88
2023-01-27T17:40:47.387Z,88.17
2023-01-27T17:43:31.960Z,88.03
2023-01-27T17:46:14.869Z,87.94
2023-01-27T17:49:05.240Z,88.36
2023-01-27T17:51:45.610Z,88.22
2023-01-27T17:54:25.120Z,88.00
2023-01-27T17:57:06.244Z,88.33
2023-01-27T17:59:38.957Z,88.53
2023-01-27T18:02:30.127Z,88.61
2023-01-27T18:05:04.410Z,88.68
2023-01-27T18:07:33.247Z,88.63
2023-01-27T18:10:01.006Z,88.43
2023-01-27T18:12:35.487Z,88.70
2023-01-27T18:15:37.200Z,88.54
2023-01-27T18:18:24.762Z,88.83
2023-01-27T18:21:04.663Z,89.10
2023-01-27T18:23:47.883Z,88.80
2023-01-27T18:26:32.418Z,88.47
2023-01-27T18:29:20.431Z,88.65
2023-01-27T18:32:08.423Z,89.09
2023-01-27T18:34:46.783Z,89.36
2023-01-27T18:37:27.357Z,89.54
2023-01-27T18:39:57.110Z,89.55
2023-01-27T18:42:26.315Z,89.64
2023-01-27T18:44:54.712Z,89.60
2023-01-27T18:47:27.674Z,89.37
2023-01-27T18:50:17.876Z,89.13
2023-01-27T18:52:46.779Z,89.23
2023-01-27T18:55:24.669Z,89.34
2023-01-27T18:57:57.571Z,89.20
2023-01-27T19:00:31.197Z,89.01
2023-01-27T19:03:01.362Z,89.41
2023-01-27T19:05:30.840Z,88.71
2023-01-27T19:07:59.267Z,89.01
2023-01-27T19:10:32.604Z,89.41
2023-01-27T19:13:01.954Z,89.13
2023-01-27T19:15:34.994Z,89.04
2023-01-27T19:18:15.906Z,89.03
2023-01-27T19:20:43.905Z,89.09
2023-01-27T19:23:16.795Z,88.80
2023-01-27T19:25:48.229Z,88.67
2023-01-27T19:28:31.185Z,88.65
2023-01-27T19:31:00.125Z,88.69
2023-01-27T19:33:29.739Z,88.76
2023-01-27T19:36:10.605Z,88.99
2023-01-27T19:38:38.575Z,88.97
2023-01-27T19:41:09.905Z,89.23
2023-01-27T19:43:38.791Z,89.25
2023-01-27T19:46:22.082Z,89.50
2023-01-27T19:48:52.091Z,89.42
2023-01-27T19:51:20.273Z,89.59
2023-01-27T19:53:48.268Z,89.50
2023-01-27T19:56:21.609Z,89.52
2023-01-27T19:58:54.053Z,89.28
2023-01-27T20:01:24.612Z,89.36
2023-01-27T20:03:54.163Z,89.20
2023-01-27T20:06:24.832Z,89.23
2023-01-27T20:08:59.464Z,89.25
2023-01-27T20:11:37.372Z,89.15
2023-01-27T20:14:18.919Z,89.47
2023-01-27T20:16:48.906Z,89.55
2023-01-27T20:19:17.189Z,89.65
2023-01-27T20:21:46.404Z,89.55
2023-01-27T20:24:18.212Z,89.19
2023-01-27T20:26:46.857Z,89.06
2023-01-27T20:29:14.927Z,89.20
2023-01-27T20:31:43.876Z,89.22
2023-01-27T20:34:11.748Z,88.98
2023-01-27T20:36:39.653Z,89.29
2023-01-27T20:39:07.444Z,89.41
2023-01-27T20:41:35.277Z,88.75
2023-01-27T20:44:03.276Z,88.76
2023-01-27T20:46:31.893Z,88.91
2023-01-27T20:49:00.390Z,88.84
2023-01-27T20:51:30.960Z,88.80
2023-01-27T20:54:00.706Z,88.72
2023-01-27T20:56:28.618Z,88.64
2023-01-27T20:58:57.024Z,88.42
2023-01-27T21:01:25.487Z,88.76
2023-01-27T21:03:57.295Z,88.70
2023-01-27T21:06:25.732Z,88.83
2023-01-27T21:08:58.180Z,88.65
2023-01-27T21:11:29.448Z,88.25
2023-01-27T21:13:57.650Z,88.08
2023-01-27T21:16:30.586Z,87.56
2023-01-27T21:19:04.553Z,87.57
2023-01-27T21:21:35.483Z,87.67
2023-01-27T21:24:04.419Z,87.72
2023-01-27T21:26:32.733Z,87.71
2023-01-27T21:29:00.520Z,87.68
2023-01-27T21:31:30.354Z,87.60
2023-01-27T21:34:00.200Z,87.66
2023-01-27T21:36:31.555Z,87.71
2023-01-27T21:39:01.670Z,87.76
2023-01-27T21:41:49.545Z,87.88
2023-01-27T21:44:43.373Z,87.49
2023-01-27T21:47:17.809Z,87.68
2023-01-27T21:50:03.040Z,87.63
2023-01-27T21:52:41.925Z,87.76
2023-01-27T21:55:13.927Z,87.99
2023-01-27T21:57:43.292Z,87.41
2023-01-27T22:00:13.020Z,87.46
2023-01-27T22:03:06.192Z,87.64
2023-01-27T22:05:39.624Z,87.66
2023-01-27T22:08:12.114Z,87.62
2023-01-27T22:10:44.095Z,87.68
2023-01-27T22:13:18.638Z,88.08
2023-01-27T22:15:50.611Z,87.92
2023-01-27T22:18:21.275Z,87.64
2023-01-27T22:20:49.596Z,87.81
2023-01-27T22:23:20.630Z,87.85
2023-01-27T22:25:53.576Z,87.85
2023-01-27T22:28:24.400Z,87.70
2023-01-27T22:30:55.812Z,87.58
2023-01-27T22:33:24.072Z,87.77
2023-01-27T22:36:00.244Z,87.69
2023-01-27T22:38:29.443Z,87.71
2023-01-27T22:40:59.586Z,87.66
2023-01-27T22:43:27.693Z,87.66
2023-01-27T22:46:02.449Z,87.89
2023-01-27T22:48:31.241Z,87.54
2023-01-27T22:51:04.139Z,87.55
2023-01-27T22:53:33.625Z,87.46
2023-01-27T22:56:03.912Z,86.77
2023-01-27T22:58:32.097Z,86.75
2023-01-27T23:01:00.118Z,87.21
2023-01-27T23:03:28.350Z,87.38
2023-01-27T23:05:56.415Z,87.45
2023-01-27T23:08:24.774Z,87.36
2023-01-27T23:10:53.779Z,87.02
2023-01-27T23:13:21.803Z,87.14
2023-01-27T23:15:50.691Z,86.97
2023-01-27T23:18:18.727Z,86.69
2023-01-27T23:20:46.719Z,86.88
2023-01-27T23:23:15.602Z,86.68
2023-01-27T23:25:47.936Z,86.26
2023-01-27T23:28:17.787Z,86.23
2023-01-27T23:30:50.533Z,86.66
2023-01-27T23:33:19.739Z,86.82
2023-01-27T23:35:48.421Z,87.04
2023-01-27T23:38:31.245Z,86.75
2023-01-27T23:41:04.305Z,87.06
2023-01-27T23:43:32.434Z,86.52
2023-01-27T23:46:00.559Z,86.62
2023-01-27T23:48:29.686Z,86.67
2023-01-27T23:50:57.922Z,86.81
2023-01-27T23:53:25.913Z,86.70
2023-01-27T23:55:58.934Z,86.10
2023-01-27T23:58:28.435Z,85.82
